Welcome to Northern Hawkes Bay. New Zealand.
PWS Header
      nz Flag



Hit Counter


W3C Valid W3C Valid logo


    Wairoa

Select any of the Stations below to visit their websites.










Historic Data from Weather Underground
Select the location of interest below. Wairoa is the default. Please have patience, this Data is slow to load in.
Northern Hawkes Bay Historical Data
 
Daily Summary for June 29, 2017 Units:  Metric    English   Both
« Previous Day
Next Day »
Daily Weekly Monthly Yearly Custom
  Current: High: Low: Average:
Temperature: 9.6 °C 13.6 °C 6.3 °C 9.7 °C
Dew Point: 7.1 °C 11.0 °C 6.0 °C 7.6 °C
Humidity: 84% 99% 71% 88%
Wind Speed: 1.1km/h 12.2km/h 0.0km/h 3.7km/h
Wind Gust: 3.5km/h 18.3km/h - -
WindNNW - - SW
Pressure: 1024.3 hPa 1026.3 hPa 1023.2 hPa -
Precipitation: 0.3 mm      
Historical Graphs
 
 
Tabular Data for June 29, 2017
Time Temperature Dew Point Pressure Wind Wind Speed Wind Gust Humidity Rainfall Rate (Hourly) solar
00:03 8.5 °C 8.3 °C 1024.3 hPa Calm   2.6 km/h 99% 0.0 mm 0 W/m2
00:08 8.5 °C 8.3 °C 1023.9 hPa NNE 1.1 km/h 2.6 km/h 99% 0.0 mm 0 W/m2
00:13 8.5 °C 8.3 °C 1024.3 hPa NW 2.6 km/h 6.1 km/h 99% 0.0 mm 0 W/m2
00:18 8.4 °C 8.3 °C 1024.3 hPa NW 3.5 km/h 6.1 km/h 99% 0.0 mm 0 W/m2
00:23 8.4 °C 8.3 °C 1024.3 hPa NW 2.6 km/h 6.1 km/h 99% 0.0 mm 0 W/m2
00:28 8.3 °C 8.2 °C 1024.3 hPa NW 2.6 km/h 6.1 km/h 99% 0.0 mm 0 W/m2
00:33 8.3 °C 8.2 °C 1024.3 hPa NNW 2.6 km/h 5.0 km/h 99% 0.0 mm 0 W/m2
00:38 8.2 °C 8.1 °C 1024.3 hPa NNW 2.6 km/h 5.0 km/h 99% 0.0 mm 0 W/m2
00:39 8.2 °C 8.1 °C 1024.3 hPa NNW 2.6 km/h 5.0 km/h 99% 0.0 mm 0 W/m2
00:44 8.2 °C 8.1 °C 1024.3 hPa NNW 1.1 km/h 3.5 km/h 99% 0.0 mm 0 W/m2
00:49 8.2 °C 8.1 °C 1024.3 hPa North 1.1 km/h 3.5 km/h 99% 0.0 mm 0 W/m2
00:54 8.2 °C 8.1 °C 1024.3 hPa NNW 2.6 km/h 3.5 km/h 99% 0.0 mm 0 W/m2
00:59 8.1 °C 7.9 °C 1024.3 hPa NW 2.6 km/h 5.0 km/h 99% 0.0 mm 0 W/m2
01:04 8.1 °C 7.9 °C 1024.3 hPa NW 2.6 km/h 5.0 km/h 99% 0.0 mm 0 W/m2
01:09 8.0 °C 7.8 °C 1024.3 hPa NW 2.6 km/h 5.0 km/h 99% 0.0 mm 0 W/m2
01:14 7.9 °C 7.4 °C 1024.3 hPa NW 2.6 km/h 3.5 km/h 97% 0.0 mm 0 W/m2
01:19 7.9 °C 7.4 °C 1023.9 hPa NW 2.6 km/h 5.0 km/h 97% 0.0 mm 0 W/m2
01:24 7.8 °C 7.3 °C 1024.3 hPa NNW 1.1 km/h 5.0 km/h 97% 0.0 mm 0 W/m2
01:29 7.7 °C 7.3 °C 1024.3 hPa North 1.1 km/h 3.5 km/h 97% 0.0 mm 0 W/m2
01:34 7.6 °C 7.2 °C 1023.9 hPa North 1.1 km/h 3.5 km/h 97% 0.0 mm 0 W/m2
01:39 7.4 °C 6.9 °C 1023.9 hPa North 2.6 km/h 3.5 km/h 97% 0.0 mm 0 W/m2
01:44 7.4 °C 6.9 °C 1024.3 hPa North 2.6 km/h 3.5 km/h 97% 0.0 mm 0 W/m2
01:49 7.3 °C 6.8 °C 1023.9 hPa North 1.1 km/h 3.5 km/h 97% 0.0 mm 0 W/m2
01:55 7.2 °C 6.8 °C 1023.9 hPa North 1.1 km/h 3.5 km/h 97% 0.0 mm 0 W/m2
02:00 7.2 °C 6.8 °C 1023.9 hPa North 1.1 km/h 3.5 km/h 97% 0.0 mm 0 W/m2
02:05 7.1 °C 6.7 °C 1023.9 hPa North 1.1 km/h 3.5 km/h 97% 0.0 mm 0 W/m2
02:10 7.2 °C 6.8 °C 1023.9 hPa North 2.6 km/h 3.5 km/h 97% 0.0 mm 0 W/m2
02:15 7.2 °C 6.8 °C 1023.9 hPa North 2.6 km/h 3.5 km/h 97% 0.0 mm 0 W/m2
02:20 7.1 °C 6.7 °C 1023.9 hPa North 1.1 km/h 3.5 km/h 97% 0.0 mm 0 W/m2
02:25 7.1 °C 6.7 °C 1023.9 hPa NW 2.6 km/h 5.0 km/h 97% 0.0 mm 0 W/m2
02:30 7.2 °C 6.8 °C 1023.9 hPa NW 3.5 km/h 5.0 km/h 97% 0.0 mm 0 W/m2
02:35 7.4 °C 6.9 °C 1023.9 hPa NW 2.6 km/h 6.1 km/h 97% 0.0 mm 0 W/m2
02:40 7.3 °C 6.8 °C 1023.9 hPa NW 1.1 km/h 6.1 km/h 97% 0.0 mm 0 W/m2
02:45 7.2 °C 6.8 °C 1023.9 hPa NNW 1.1 km/h 5.0 km/h 97% 0.0 mm 0 W/m2
02:50 7.0 °C 6.6 °C 1023.9 hPa NNE 3.5 km/h 5.0 km/h 97% 0.0 mm 0 W/m2
02:55 7.0 °C 6.6 °C 1023.9 hPa Calm   5.0 km/h 97% 0.0 mm 0 W/m2
02:57 6.9 °C 6.6 °C 1023.9 hPa NNE 1.1 km/h 5.0 km/h 98% 0.0 mm 0 W/m2
03:02 6.7 °C 6.4 °C 1023.9 hPa NNE 1.1 km/h 3.5 km/h 98% 0.0 mm 0 W/m2
03:07 6.6 °C 6.3 °C 1023.6 hPa Calm   3.5 km/h 98% 0.0 mm 0 W/m2
03:12 6.6 °C 6.3 °C 1023.9 hPa NNE 2.6 km/h 3.5 km/h 98% 0.0 mm 0 W/m2
03:17 6.6 °C 6.3 °C 1023.9 hPa North 1.1 km/h 3.5 km/h 98% 0.0 mm 0 W/m2
03:22 6.5 °C 6.2 °C 1023.6 hPa NNW 1.1 km/h 3.5 km/h 98% 0.0 mm 0 W/m2
03:27 6.4 °C 6.1 °C 1023.9 hPa NW 2.6 km/h 5.0 km/h 98% 0.0 mm 0 W/m2
03:32 6.4 °C 6.1 °C 1023.6 hPa NW 2.6 km/h 5.0 km/h 98% 0.0 mm 0 W/m2
03:37 6.3 °C 6.0 °C 1023.6 hPa NNW 2.6 km/h 5.0 km/h 98% 0.0 mm 0 W/m2
03:42 6.3 °C 6.0 °C 1023.6 hPa North 1.1 km/h 5.0 km/h 98% 0.0 mm 0 W/m2
03:47 6.3 °C 6.0 °C 1023.6 hPa Calm   3.5 km/h 98% 0.0 mm 0 W/m2
03:52 6.3 °C 6.0 °C 1023.6 hPa North 2.6 km/h 5.0 km/h 98% 0.0 mm 0 W/m2
03:57 6.3 °C 6.0 °C 1023.6 hPa North 1.1 km/h 5.0 km/h 98% 0.0 mm 0 W/m2
04:03 6.3 °C 6.0 °C 1023.6 hPa North 3.5 km/h 5.0 km/h 98% 0.0 mm 0 W/m2
04:08 6.3 °C 6.0 °C 1023.6 hPa North 1.1 km/h 5.0 km/h 98% 0.0 mm 0 W/m2
04:13 6.4 °C 6.1 °C 1023.2 hPa North 2.6 km/h 5.0 km/h 98% 0.0 mm 0 W/m2
04:18 6.5 °C 6.2 °C 1023.2 hPa North 2.6 km/h 5.0 km/h 98% 0.0 mm 0 W/m2
04:24 6.6 °C 6.3 °C 1023.2 hPa North 1.1 km/h 5.0 km/h 98% 0.0 mm 0 W/m2
04:29 6.7 °C 6.4 °C 1023.6 hPa North 2.6 km/h 3.5 km/h 98% 0.0 mm 0 W/m2
04:34 6.8 °C 6.5 °C 1023.2 hPa NNW 3.5 km/h 6.1 km/h 98% 0.0 mm 0 W/m2
04:39 6.9 °C 6.6 °C 1023.6 hPa North 1.1 km/h 6.1 km/h 98% 0.0 mm 0 W/m2
04:44 6.9 °C 6.6 °C 1023.2 hPa NNE 2.6 km/h 6.1 km/h 98% 0.0 mm 0 W/m2
04:49 6.9 °C 6.6 °C 1023.2 hPa NNE 1.1 km/h 3.5 km/h 98% 0.0 mm 0 W/m2
04:54 6.9 °C 6.6 °C 1023.6 hPa Calm   3.5 km/h 98% 0.0 mm 0 W/m2
04:59 6.9 °C 6.6 °C 1023.2 hPa NNE 2.6 km/h 3.5 km/h 98% 0.0 mm 0 W/m2
05:04 7.0 °C 6.6 °C 1023.2 hPa North 1.1 km/h 5.0 km/h 97% 0.0 mm 0 W/m2
05:09 7.0 °C 6.6 °C 1023.2 hPa North 1.1 km/h 5.0 km/h 97% 0.0 mm 0 W/m2
05:14 7.0 °C 6.6 °C 1023.2 hPa North 2.6 km/h 3.5 km/h 97% 0.0 mm 0 W/m2
05:19 7.1 °C 6.7 °C 1023.6 hPa North 1.1 km/h 3.5 km/h 97% 0.0 mm 0 W/m2
05:24 7.2 °C 6.8 °C 1023.6 hPa North 1.1 km/h 3.5 km/h 97% 0.0 mm 0 W/m2
05:29 7.2 °C 6.8 °C 1023.6 hPa North 1.1 km/h 3.5 km/h 97% 0.0 mm 0 W/m2
05:34 7.2 °C 6.8 °C 1023.6 hPa North 1.1 km/h 2.6 km/h 97% 0.0 mm 0 W/m2
05:39 7.3 °C 6.8 °C 1023.6 hPa NNW 2.6 km/h 3.5 km/h 97% 0.0 mm 0 W/m2
05:44 7.3 °C 6.8 °C 1023.6 hPa NW 5.0 km/h 7.2 km/h 97% 0.0 mm 0 W/m2
05:49 7.4 °C 6.9 °C 1023.6 hPa NW 3.5 km/h 7.2 km/h 97% 0.0 mm 0 W/m2
05:54 7.4 °C 6.9 °C 1023.6 hPa NW 2.6 km/h 7.2 km/h 97% 0.0 mm 0 W/m2
05:59 7.3 °C 6.8 °C 1023.6 hPa NNW 1.1 km/h 6.1 km/h 97% 0.0 mm 0 W/m2
06:04 7.2 °C 6.8 °C 1023.9 hPa North 1.1 km/h 3.5 km/h 97% 0.0 mm 0 W/m2
06:09 7.1 °C 6.7 °C 1023.9 hPa NNE 1.1 km/h 3.5 km/h 97% 0.0 mm 0 W/m2
06:14 7.0 °C 6.6 °C 1023.9 hPa NNE 2.6 km/h 5.0 km/h 97% 0.0 mm 0 W/m2
06:19 6.9 °C 6.6 °C 1024.3 hPa North 2.6 km/h 5.0 km/h 98% 0.0 mm 0 W/m2
06:24 6.8 °C 6.5 °C 1024.3 hPa North 1.1 km/h 3.5 km/h 98% 0.0 mm 0 W/m2
06:29 6.8 °C 6.5 °C 1024.3 hPa North 2.6 km/h 3.5 km/h 98% 0.0 mm 0 W/m2
06:34 6.8 °C 6.5 °C 1024.3 hPa North 1.1 km/h 3.5 km/h 98% 0.0 mm 0 W/m2
06:39 6.8 °C 6.5 °C 1024.3 hPa North 2.6 km/h 5.0 km/h 98% 0.0 mm 0 W/m2
06:44 6.8 °C 6.5 °C 1024.3 hPa North 1.1 km/h 5.0 km/h 98% 0.0 mm 0 W/m2
06:49 6.8 °C 6.5 °C 1024.6 hPa North 1.1 km/h 3.5 km/h 98% 0.0 mm 0 W/m2
07:08 7.0 °C 6.6 °C 1024.3 hPa North 1.1 km/h 2.6 km/h 97% 0.0 mm 0 W/m2
07:13 7.0 °C 6.6 °C 1024.3 hPa NNW 1.1 km/h 2.6 km/h 97% 0.0 mm 0 W/m2
07:18 7.0 °C 6.6 °C 1024.6 hPa NW 1.1 km/h 2.6 km/h 97% 0.0 mm 0 W/m2
07:23 7.0 °C 6.6 °C 1024.6 hPa NW 1.1 km/h 3.5 km/h 97% 0.0 mm 0 W/m2
07:28 7.0 °C 6.6 °C 1024.6 hPa NNW 1.1 km/h 3.5 km/h 97% 0.0 mm 0 W/m2
07:33 7.0 °C 6.6 °C 1024.6 hPa NNW 2.6 km/h 3.5 km/h 97% 0.0 mm 0 W/m2
07:38 7.0 °C 6.6 °C 1024.6 hPa NNW 1.1 km/h 5.0 km/h 97% 0.0 mm 0 W/m2
07:43 7.0 °C 6.6 °C 1024.6 hPa NNW 1.1 km/h 5.0 km/h 97% 0.0 mm 0 W/m2
07:48 7.0 °C 6.6 °C 1024.9 hPa NNW 2.6 km/h 3.5 km/h 97% 0.0 mm 0 W/m2
07:53 7.0 °C 6.6 °C 1024.9 hPa NNW 1.1 km/h 3.5 km/h 97% 0.0 mm 1 W/m2
07:58 7.1 °C 6.7 °C 1024.9 hPa NNW 1.1 km/h 3.5 km/h 97% 0.0 mm 2 W/m2
08:03 7.1 °C 6.7 °C 1024.9 hPa NNW 1.1 km/h 3.5 km/h 97% 0.0 mm 3 W/m2
08:08 7.2 °C 6.8 °C 1024.9 hPa NW 1.1 km/h 2.6 km/h 97% 0.0 mm 4 W/m2
08:13 7.2 °C 6.8 °C 1024.9 hPa NW 1.1 km/h 2.6 km/h 97% 0.0 mm 4 W/m2
08:18 7.3 °C 6.8 °C 1024.9 hPa NW 1.1 km/h 2.6 km/h 97% 0.0 mm 7 W/m2
08:23 7.3 °C 6.8 °C 1024.9 hPa NW 1.1 km/h 2.6 km/h 97% 0.0 mm 12 W/m2
08:28 7.4 °C 6.9 °C 1024.9 hPa NW 1.1 km/h 2.6 km/h 97% 0.0 mm 19 W/m2
08:33 7.5 °C 7.1 °C 1024.9 hPa NW 1.1 km/h 2.6 km/h 97% 0.0 mm 25 W/m2
08:38 7.6 °C 7.2 °C 1024.9 hPa NW 2.6 km/h 3.5 km/h 97% 0.0 mm 34 W/m2
08:43 7.7 °C 7.3 °C 1024.9 hPa NNW 2.6 km/h 5.0 km/h 97% 0.0 mm 40 W/m2
08:48 7.8 °C 7.3 °C 1024.9 hPa NNW 3.5 km/h 5.0 km/h 97% 0.0 mm 56 W/m2
08:53 8.0 °C 7.8 °C 1024.9 hPa NNW 3.5 km/h 6.1 km/h 99% 0.0 mm 149 W/m2
08:58 8.4 °C 8.3 °C 1024.9 hPa NNW 2.6 km/h 6.1 km/h 99% 0.0 mm 68 W/m2
09:03 8.6 °C 8.4 °C 1024.9 hPa NNW 2.6 km/h 6.1 km/h 99% 0.0 mm 202 W/m2
09:08 9.3 °C 9.2 °C 1024.9 hPa NNW 1.1 km/h 6.1 km/h 99% 0.0 mm 243 W/m2
09:13 10.1 °C 9.9 °C 1024.9 hPa NNW 3.5 km/h 5.0 km/h 99% 0.0 mm 248 W/m2
09:18 10.2 °C 10.1 °C 1024.9 hPa NNW 2.6 km/h 7.2 km/h 99% 0.0 mm 260 W/m2
09:23 10.5 °C 10.3 °C 1024.9 hPa NW 3.5 km/h 7.2 km/h 99% 0.3 mm 264 W/m2
09:28 10.4 °C 10.3 °C 1024.9 hPa NW 3.5 km/h 8.7 km/h 99% 0.3 mm 265 W/m2
09:33 10.5 °C 10.3 °C 1025.3 hPa NW 5.0 km/h 8.7 km/h 99% 0.3 mm 239 W/m2
09:38 10.6 °C 10.4 °C 1025.3 hPa NW 2.6 km/h 6.1 km/h 99% 0.3 mm 286 W/m2
09:43 11.0 °C 10.7 °C 1025.6 hPa NW 2.6 km/h 7.2 km/h 98% 0.3 mm 273 W/m2
09:48 11.3 °C 11.0 °C 1025.6 hPa NW 5.0 km/h 9.7 km/h 98% 0.3 mm 128 W/m2
09:53 10.9 °C 10.8 °C 1025.6 hPa NW 5.0 km/h 9.7 km/h 99% 0.3 mm 76 W/m2
09:58 10.5 °C 9.7 °C 1025.6 hPa NW 3.5 km/h 7.2 km/h 95% 0.3 mm 63 W/m2
10:03 10.3 °C 9.4 °C 1025.6 hPa WNW 2.6 km/h 6.1 km/h 94% 0.3 mm 62 W/m2
10:08 10.1 °C 9.0 °C 1025.6 hPa WNW 1.1 km/h 5.0 km/h 93% 0.3 mm 69 W/m2
10:13 10.2 °C 9.1 °C 1025.3 hPa NW 3.5 km/h 5.0 km/h 93% 0.3 mm 51 W/m2
10:18 10.9 °C 9.8 °C 1025.6 hPa NW 2.6 km/h 5.0 km/h 93% 0.3 mm 71 W/m2
10:23 11.4 °C 9.7 °C 1025.6 hPa NW 1.1 km/h 5.0 km/h 89% 0.0 mm 68 W/m2
10:28 12.2 °C 9.4 °C 1025.6 hPa WNW 2.6 km/h 5.0 km/h 83% 0.0 mm 68 W/m2
10:33 12.6 °C 9.4 °C 1026.0 hPa West 3.5 km/h 6.1 km/h 81% 0.0 mm 66 W/m2
10:38 12.8 °C 9.3 °C 1026.0 hPa WSW 6.1 km/h 8.7 km/h 79% 0.0 mm 62 W/m2
10:43 12.5 °C 8.0 °C 1026.0 hPa SW 7.2 km/h 11.1 km/h 74% 0.0 mm 59 W/m2
10:48 12.4 °C 7.7 °C 1026.0 hPa SW 7.2 km/h 12.2 km/h 73% 0.0 mm 58 W/m2
10:53 12.3 °C 7.6 °C 1026.0 hPa SW 8.7 km/h 17.2 km/h 73% 0.0 mm 57 W/m2
10:58 12.0 °C 7.5 °C 1026.0 hPa SW 7.2 km/h 17.2 km/h 74% 0.0 mm 58 W/m2
11:03 12.2 °C 7.9 °C 1026.3 hPa SW 7.2 km/h 14.8 km/h 75% 0.0 mm 59 W/m2
11:08 12.0 °C 7.5 °C 1026.3 hPa SW 8.7 km/h 14.8 km/h 74% 0.0 mm 58 W/m2
11:13 12.0 °C 7.7 °C 1026.0 hPa SW 8.7 km/h 12.2 km/h 75% 0.0 mm 59 W/m2
11:18 11.9 °C 7.6 °C 1026.0 hPa SW 9.7 km/h 14.8 km/h 75% 0.0 mm 59 W/m2
11:23 12.1 °C 8.0 °C 1026.3 hPa SW 9.7 km/h 14.8 km/h 76% 0.0 mm 59 W/m2
11:28 12.1 °C 7.8 °C 1026.0 hPa SW 7.2 km/h 13.4 km/h 75% 0.0 mm 62 W/m2
11:33 11.8 °C 7.9 °C 1026.0 hPa SW 11.1 km/h 14.8 km/h 77% 0.0 mm 55 W/m2
11:38 11.8 °C 8.1 °C 1026.3 hPa SW 7.2 km/h 14.8 km/h 78% 0.0 mm 61 W/m2
11:43 12.0 °C 7.9 °C 1026.0 hPa SW 8.7 km/h 14.8 km/h 76% 0.0 mm 62 W/m2
11:48 12.1 °C 8.2 °C 1026.0 hPa SW 8.7 km/h 15.8 km/h 77% 0.0 mm 60 W/m2
11:53 12.1 °C 7.8 °C 1026.0 hPa SW 8.7 km/h 17.2 km/h 75% 0.0 mm 59 W/m2
11:58 12.0 °C 7.7 °C 1025.6 hPa SW 11.1 km/h 17.2 km/h 75% 0.0 mm 60 W/m2
12:03 12.0 °C 7.9 °C 1025.6 hPa WSW 8.7 km/h 14.8 km/h 76% 0.0 mm 61 W/m2
12:08 12.1 °C 8.0 °C 1025.6 hPa WSW 7.2 km/h 13.4 km/h 76% 0.0 mm 59 W/m2
12:13 12.3 °C 8.0 °C 1025.3 hPa WSW 6.1 km/h 17.2 km/h 75% 0.0 mm 60 W/m2
12:18 12.8 °C 8.5 °C 1025.6 hPa WSW 8.7 km/h 17.2 km/h 75% 0.0 mm 55 W/m2
12:23 12.8 °C 8.5 °C 1025.3 hPa WSW 8.7 km/h 13.4 km/h 75% 0.0 mm 58 W/m2
12:28 12.6 °C 8.1 °C 1024.9 hPa WSW 6.1 km/h 14.8 km/h 74% 0.0 mm 58 W/m2
12:33 12.7 °C 8.2 °C 1025.3 hPa WSW 8.7 km/h 15.8 km/h 74% 0.0 mm 60 W/m2
12:38 12.3 °C 7.8 °C 1024.9 hPa WSW 12.2 km/h 18.3 km/h 74% 0.0 mm 59 W/m2
12:43 12.4 °C 8.1 °C 1024.9 hPa SW 7.2 km/h 18.3 km/h 75% 0.0 mm 64 W/m2
12:48 12.9 °C 8.6 °C 1024.9 hPa SW 11.1 km/h 17.2 km/h 75% 0.0 mm 68 W/m2
12:53 12.9 °C 8.2 °C 1024.9 hPa SW 9.7 km/h 14.8 km/h 73% 0.0 mm 64 W/m2
12:58 13.2 °C 8.7 °C 1024.6 hPa WSW 7.2 km/h 14.8 km/h 74% 0.0 mm 60 W/m2
13:03 13.4 °C 8.4 °C 1024.6 hPa SW 3.5 km/h 14.8 km/h 72% 0.0 mm 59 W/m2
13:08 13.6 °C 8.4 °C 1024.6 hPa SW 11.1 km/h 14.8 km/h 71% 0.0 mm 60 W/m2
13:13 13.3 °C 8.2 °C 1024.3 hPa SW 9.7 km/h 14.8 km/h 71% 0.0 mm 60 W/m2
13:18 13.3 °C 8.2 °C 1024.3 hPa SW 8.7 km/h 14.8 km/h 71% 0.0 mm 60 W/m2
13:23 13.1 °C 8.2 °C 1024.6 hPa SW 9.7 km/h 14.8 km/h 72% 0.0 mm 62 W/m2
13:28 13.3 °C 8.6 °C 1024.3 hPa SW 5.0 km/h 14.8 km/h 73% 0.0 mm 65 W/m2
13:33 13.4 °C 8.7 °C 1024.3 hPa SW 6.1 km/h 13.4 km/h 73% 0.0 mm 66 W/m2
13:38 13.2 °C 8.3 °C 1024.3 hPa SW 7.2 km/h 13.4 km/h 72% 0.0 mm 67 W/m2
13:43 13.4 °C 8.4 °C 1024.3 hPa SSW 8.7 km/h 13.4 km/h 72% 0.0 mm 68 W/m2
13:48 13.1 °C 8.2 °C 1024.3 hPa SW 5.0 km/h 15.8 km/h 72% 0.0 mm 72 W/m2
13:53 13.6 °C 8.8 °C 1024.3 hPa SW 9.7 km/h 15.8 km/h 73% 0.0 mm 94 W/m2
13:58 13.5 °C 8.3 °C 1023.9 hPa SW 9.7 km/h 13.4 km/h 71% 0.0 mm 155 W/m2
14:03 13.3 °C 8.2 °C 1023.9 hPa SW 7.2 km/h 13.4 km/h 71% 0.0 mm 213 W/m2
14:08 13.2 °C 8.3 °C 1023.9 hPa SW 7.2 km/h 14.8 km/h 72% 0.0 mm 230 W/m2
14:13 13.2 °C 8.3 °C 1024.3 hPa SW 9.7 km/h 14.8 km/h 72% 0.0 mm 239 W/m2
14:18 13.1 °C 8.2 °C 1024.3 hPa SW 8.7 km/h 18.3 km/h 72% 0.0 mm 237 W/m2
14:23 13.1 °C 8.6 °C 1024.3 hPa SW 9.7 km/h 18.3 km/h 74% 0.0 mm 231 W/m2
14:33 13.0 °C 8.3 °C 1024.3 hPa SW 5.0 km/h 14.8 km/h 73% 0.0 mm 223 W/m2
14:38 13.0 °C 8.3 °C 1024.3 hPa SW 6.1 km/h 14.8 km/h 73% 0.0 mm 219 W/m2
14:43 13.3 °C 8.6 °C 1024.3 hPa SW 7.2 km/h 14.8 km/h 73% 0.0 mm 213 W/m2
14:48 13.0 °C 8.1 °C 1024.3 hPa SW 9.7 km/h 13.4 km/h 72% 0.0 mm 207 W/m2
14:53 12.9 °C 8.2 °C 1024.3 hPa SW 7.2 km/h 14.8 km/h 73% 0.0 mm 202 W/m2
14:58 13.0 °C 8.3 °C 1024.3 hPa WSW 8.7 km/h 14.8 km/h 73% 0.0 mm 195 W/m2
15:03 12.9 °C 8.2 °C 1024.3 hPa WSW 6.1 km/h 13.4 km/h 73% 0.0 mm 187 W/m2
15:08 12.8 °C 8.1 °C 1024.3 hPa WSW 6.1 km/h 13.4 km/h 73% 0.0 mm 178 W/m2
15:13 12.9 °C 8.2 °C 1024.3 hPa SW 5.0 km/h 12.2 km/h 73% 0.0 mm 165 W/m2
15:18 13.2 °C 8.3 °C 1024.3 hPa SW 6.1 km/h 12.2 km/h 72% 0.0 mm 147 W/m2
15:23 13.1 °C 8.2 °C 1024.3 hPa SW 5.0 km/h 12.2 km/h 72% 0.0 mm 130 W/m2
15:28 13.2 °C 8.4 °C 1024.3 hPa SW 5.0 km/h 12.2 km/h 73% 0.0 mm 120 W/m2
15:33 13.3 °C 8.4 °C 1024.3 hPa WSW 5.0 km/h 11.1 km/h 72% 0.0 mm 113 W/m2
15:38 13.5 °C 8.8 °C 1024.3 hPa SW 5.0 km/h 8.7 km/h 73% 0.0 mm 104 W/m2
15:43 13.4 °C 8.3 °C 1024.3 hPa SW 7.2 km/h 9.7 km/h 71% 0.0 mm 94 W/m2
15:48 13.2 °C 8.3 °C 1024.3 hPa SW 6.1 km/h 11.1 km/h 72% 0.0 mm 85 W/m2
15:53 12.9 °C 8.0 °C 1023.9 hPa SW 6.1 km/h 11.1 km/h 72% 0.0 mm 75 W/m2
15:58 12.8 °C 7.9 °C 1024.3 hPa WSW 2.6 km/h 9.7 km/h 72% 0.0 mm 66 W/m2
16:03 13.2 °C 8.3 °C 1024.3 hPa WSW 6.1 km/h 8.7 km/h 72% 0.0 mm 57 W/m2
16:08 13.0 °C 8.1 °C 1023.9 hPa WSW 5.0 km/h 8.7 km/h 72% 0.0 mm 49 W/m2
16:13 13.1 °C 8.4 °C 1023.9 hPa WSW 1.1 km/h 8.7 km/h 73% 0.0 mm 41 W/m2
16:18 13.3 °C 8.4 °C 1024.3 hPa West 1.1 km/h 6.1 km/h 72% 0.0 mm 35 W/m2
16:23 13.6 °C 8.7 °C 1024.3 hPa West 1.1 km/h 6.1 km/h 72% 0.0 mm 29 W/m2
16:28 13.5 °C 8.3 °C 1024.3 hPa WNW 1.1 km/h 3.5 km/h 71% 0.0 mm 23 W/m2
16:33 13.3 °C 8.2 °C 1023.9 hPa WNW 2.6 km/h 3.5 km/h 71% 0.0 mm 19 W/m2
16:38 13.1 °C 7.9 °C 1023.9 hPa Calm   3.5 km/h 71% 0.0 mm 13 W/m2
16:43 13.0 °C 8.1 °C 1024.3 hPa Calm   2.6 km/h 72% 0.0 mm 8 W/m2
16:48 12.6 °C 7.7 °C 1023.9 hPa Calm   1.1 km/h 72% 0.0 mm 4 W/m2
16:53 11.8 °C 7.1 °C 1024.3 hPa Calm   1.1 km/h 73% 0.0 mm 1 W/m2
16:58 11.0 °C 6.7 °C 1024.3 hPa East 1.1 km/h 2.6 km/h 75% 0.0 mm 0 W/m2
17:03 10.6 °C 6.9 °C 1024.3 hPa Calm   2.6 km/h 78% 0.0 mm 0 W/m2
17:08 10.3 °C 6.8 °C 1024.3 hPa Calm   2.6 km/h 79% 0.0 mm 0 W/m2
17:18 9.6 °C 7.1 °C 1024.3 hPa NNW 1.1 km/h 3.5 km/h 84% 0.0 mm 0 W/m2
Northern Hawkes Bay. New Zealand Historic Data
Compliments of Weather Underground - 1.75 mb